Time;durP1;ratioP1;P1;durP2;ratioP2;P2;SDS_P1;SDS_P2;PMS_P1;PMS_P2;Temp;Humidity;BMP_temperature;BMP_pressure;BME280_temperature;BME280_humidity;BME280_pressure;Samples;Min_cycle;Max_cycle;Signal;HPM_P1;HPM_P2
2023/06/01 00:02:20;;;;;;;2.45;1.80;;;25.10;33.40;;;;;;5068254;28;45269;-71
2023/06/01 00:04:48;;;;;;;2.03;1.77;;;25.10;33.50;;;;;;5068311;28;45364;-72
2023/06/01 00:07:15;;;;;;;2.25;1.65;;;25.10;33.50;;;;;;5068255;28;45372;-71
2023/06/01 00:09:41;;;;;;;1.92;1.70;;;25.00;33.50;;;;;;5068705;28;45159;-71
2023/06/01 00:12:09;;;;;;;1.55;1.45;;;25.00;33.70;;;;;;5068111;28;47265;-71
2023/06/01 00:14:36;;;;;;;1.58;1.48;;;25.00;33.70;;;;;;5068090;28;45328;-71
2023/06/01 00:17:05;;;;;;;2.15;1.90;;;25.00;33.70;;;;;;5068173;28;45312;-71
2023/06/01 00:19:34;;;;;;;2.38;2.05;;;25.00;33.70;;;;;;5068305;28;45560;-71
2023/06/01 00:22:01;;;;;;;2.03;1.63;;;24.90;33.80;;;;;;5068256;28;45490;-71
2023/06/01 00:24:28;;;;;;;1.88;1.67;;;24.90;33.80;;;;;;5067806;28;45396;-71
2023/06/01 00:26:55;;;;;;;1.77;1.63;;;24.90;33.90;;;;;;5067971;28;45390;-71
2023/06/01 00:29:22;;;;;;;2.08;1.70;;;24.80;33.90;;;;;;5068351;28;45396;-71
2023/06/01 00:31:49;;;;;;;1.88;1.67;;;24.80;34.00;;;;;;5067781;28;45594;-71
2023/06/01 00:34:16;;;;;;;1.80;1.60;;;24.80;34.10;;;;;;5067842;28;45344;-71
2023/06/01 00:36:44;;;;;;;3.20;1.90;;;24.80;34.00;;;;;;5067752;28;45316;-71
2023/06/01 00:39:11;;;;;;;2.70;1.60;;;24.80;34.10;;;;;;5068373;28;45389;-71
2023/06/01 00:41:38;;;;;;;2.72;1.65;;;24.70;34.20;;;;;;5067747;27;45615;-71
2023/06/01 00:44:05;;;;;;;1.80;1.70;;;24.70;34.20;;;;;;5067898;28;45223;-71
2023/06/01 00:46:32;;;;;;;2.20;1.73;;;24.70;34.40;;;;;;5067594;28;45371;-71
2023/06/01 00:48:59;;;;;;;2.13;1.75;;;24.60;34.40;;;;;;5067935;28;45558;-71
2023/06/01 00:51:26;;;;;;;2.08;1.70;;;24.60;34.40;;;;;;5067446;28;46655;-72
2023/06/01 00:53:54;;;;;;;2.53;1.80;;;24.60;34.40;;;;;;5067589;28;45265;-71
2023/06/01 00:56:21;;;;;;;2.20;1.83;;;24.60;34.50;;;;;;5067514;28;45320;-71
2023/06/01 00:58:47;;;;;;;3.10;2.03;;;24.50;34.60;;;;;;5067745;28;45404;-71
2023/06/01 01:01:18;;;;;;;1.92;1.60;;;24.50;34.60;;;;;;5066585;28;45317;-71
2023/06/01 01:03:49;;;;;;;1.95;1.75;;;24.50;34.60;;;;;;5067211;28;45416;-71
2023/06/01 01:06:22;;;;;;;2.75;1.98;;;24.40;34.70;;;;;;5067580;28;45378;-71
2023/06/01 01:08:56;;;;;;;3.20;1.65;;;24.40;34.80;;;;;;5067572;28;45418;-71
2023/06/01 01:11:25;;;;;;;1.95;1.75;;;24.40;34.80;;;;;;5064599;28;46120;-71
2023/06/01 01:13:53;;;;;;;2.03;1.50;;;24.40;34.80;;;;;;5067297;28;45269;-71
2023/06/01 01:16:24;;;;;;;3.13;1.90;;;24.30;34.90;;;;;;5067320;28;45341;-71
2023/06/01 01:18:55;;;;;;;2.20;1.92;;;24.30;34.90;;;;;;5067491;28;45534;-71
2023/06/01 01:21:28;;;;;;;2.70;1.58;;;24.30;34.90;;;;;;5067261;28;45337;-71
2023/06/01 01:24:26;;;;;;;2.15;1.70;;;24.30;35.00;;;;;;5067160;28;45284;-71
2023/06/01 01:26:58;;;;;;;3.30;1.80;;;24.20;35.10;;;;;;5067203;28;45328;-71
2023/06/01 01:29:27;;;;;;;1.67;1.58;;;24.20;35.20;;;;;;5067528;28;45194;-71
2023/06/01 01:31:53;;;;;;;3.13;1.80;;;24.20;35.20;;;;;;5066843;28;46391;-71
2023/06/01 01:34:20;;;;;;;2.15;1.95;;;24.20;35.20;;;;;;5066888;28;45328;-72
2023/06/01 01:36:47;;;;;;;3.53;2.05;;;24.20;35.30;;;;;;5067126;28;45295;-71
2023/06/01 01:39:14;;;;;;;1.85;1.75;;;24.20;35.30;;;;;;5067166;28;45237;-71
2023/06/01 01:41:41;;;;;;;2.03;1.70;;;24.10;35.30;;;;;;5066715;28;45356;-72
2023/06/01 01:44:08;;;;;;;2.53;1.70;;;24.10;35.40;;;;;;5066729;28;45316;-71
2023/06/01 01:46:39;;;;;;;1.98;1.67;;;24.10;35.50;;;;;;5066691;28;45301;-71
2023/06/01 01:49:10;;;;;;;1.73;1.60;;;24.10;35.70;;;;;;5067146;28;45450;-71
2023/06/01 01:51:38;;;;;;;3.63;1.77;;;24.10;35.40;;;;;;5066539;28;45514;-71
2023/06/01 01:54:06;;;;;;;2.40;2.00;;;24.10;35.50;;;;;;5066668;28;45273;-71
2023/06/01 01:56:33;;;;;;;2.15;1.80;;;24.00;35.50;;;;;;5066700;28;45426;-71
2023/06/01 01:58:59;;;;;;;3.80;2.00;;;24.00;36.20;;;;;;5066891;28;45286;-71
2023/06/01 02:01:26;;;;;;;3.53;1.90;;;24.00;35.60;;;;;;5066454;28;47327;-71
2023/06/01 02:04:04;;;;;;;1.92;1.75;;;24.00;35.60;;;;;;5066084;28;45254;-71
2023/06/01 02:06:32;;;;;;;1.50;1.40;;;24.00;35.70;;;;;;5066444;28;45270;-71
2023/06/01 02:08:59;;;;;;;2.42;2.00;;;23.90;35.60;;;;;;5066845;28;45524;-71
2023/06/01 02:11:26;;;;;;;3.40;1.80;;;24.00;35.90;;;;;;5066200;28;45453;-72
2023/06/01 02:13:52;;;;;;;2.42;1.80;;;23.90;35.70;;;;;;5066498;28;45288;-71
2023/06/01 02:16:21;;;;;;;1.83;1.73;;;23.90;35.70;;;;;;5066373;28;45162;-71
2023/06/01 02:18:48;;;;;;;2.10;1.80;;;23.90;35.80;;;;;;5066549;28;45415;-71
2023/06/01 02:21:16;;;;;;;1.98;1.75;;;23.80;35.80;;;;;;5066107;28;46392;-71
2023/06/01 02:23:43;;;;;;;2.33;1.77;;;23.80;35.80;;;;;;5066029;28;45296;-71
2023/06/01 02:26:10;;;;;;;2.03;1.83;;;23.80;35.80;;;;;;5066265;28;45316;-71
2023/06/01 02:28:38;;;;;;;2.75;1.77;;;23.80;35.90;;;;;;5066589;28;45269;-71
2023/06/01 02:31:05;;;;;;;2.47;1.80;;;23.80;36.00;;;;;;5065844;28;46502;-71
2023/06/01 02:33:31;;;;;;;1.95;1.70;;;23.80;36.00;;;;;;5066132;28;45415;-71
2023/06/01 02:35:58;;;;;;;3.13;2.13;;;23.70;36.00;;;;;;5066094;28;45309;-71
2023/06/01 02:38:27;;;;;;;1.77;1.67;;;23.70;36.00;;;;;;5066207;28;45404;-71
2023/06/01 02:40:53;;;;;;;2.20;2.00;;;23.60;36.10;;;;;;5065878;28;47567;-69
2023/06/01 02:43:20;;;;;;;3.05;1.80;;;23.70;36.20;;;;;;5065802;28;45470;-71
2023/06/01 02:45:47;;;;;;;1.70;1.60;;;23.60;36.10;;;;;;5065935;28;45375;-72
2023/06/01 02:48:14;;;;;;;2.17;1.80;;;23.60;36.20;;;;;;5066346;28;45282;-72
2023/06/01 02:50:41;;;;;;;2.90;1.88;;;23.60;36.20;;;;;;5065296;28;46399;-72
2023/06/01 02:53:08;;;;;;;2.33;1.70;;;23.60;36.20;;;;;;5065600;28;45374;-72
2023/06/01 02:55:36;;;;;;;2.15;1.67;;;23.60;36.30;;;;;;5065842;28;45375;-72
2023/06/01 02:58:03;;;;;;;2.90;2.00;;;23.60;36.30;;;;;;5066049;28;45261;-71
2023/06/01 03:00:30;;;;;;;1.73;1.63;;;23.50;36.40;;;;;;5065555;28;45253;-71
2023/06/01 03:02:57;;;;;;;2.65;1.80;;;23.50;36.40;;;;;;5065343;28;45288;-70
2023/06/01 03:05:23;;;;;;;2.75;2.00;;;23.50;36.30;;;;;;5065696;28;45386;-71
2023/06/01 03:07:50;;;;;;;2.55;2.15;;;23.50;36.30;;;;;;5065922;28;45370;-72
2023/06/01 03:10:17;;;;;;;1.88;1.77;;;23.50;36.50;;;;;;5065317;28;46286;-71
2023/06/01 03:12:46;;;;;;;2.35;1.70;;;23.40;36.40;;;;;;5065357;28;45199;-72
2023/06/01 03:15:13;;;;;;;2.22;1.90;;;23.40;36.50;;;;;;5065518;28;45355;-71
2023/06/01 03:17:40;;;;;;;2.22;1.90;;;23.40;36.60;;;;;;5065620;28;45379;-72
2023/06/01 03:20:14;;;;;;;2.17;1.98;;;23.30;36.60;;;;;;5065241;28;46332;-71
2023/06/01 03:22:42;;;;;;;3.05;1.88;;;23.30;36.50;;;;;;5065303;28;45404;-72
2023/06/01 03:25:09;;;;;;;2.40;1.70;;;23.30;36.60;;;;;;5070133;28;45376;-71
2023/06/01 03:27:36;;;;;;;2.42;1.98;;;23.30;36.80;;;;;;5072320;28;45442;-71
2023/06/01 03:30:09;;;;;;;1.83;1.70;;;23.30;36.70;;;;;;5071881;28;45393;-71
2023/06/01 03:32:36;;;;;;;1.80;1.70;;;23.30;36.70;;;;;;5071916;28;45248;-71
2023/06/01 03:35:04;;;;;;;2.25;1.95;;;23.30;36.80;;;;;;5071983;28;45513;-72
2023/06/01 03:37:30;;;;;;;2.03;1.80;;;23.20;36.80;;;;;;5072146;28;45308;-71
2023/06/01 03:39:57;;;;;;;2.08;1.90;;;23.20;36.80;;;;;;5071672;28;46352;-71
2023/06/01 03:42:24;;;;;;;2.10;1.90;;;23.20;37.50;;;;;;5072248;28;45299;-71
2023/06/01 03:44:51;;;;;;;2.40;2.03;;;23.20;36.90;;;;;;5072825;28;45387;-71
2023/06/01 03:47:19;;;;;;;2.78;1.73;;;23.20;36.80;;;;;;5073394;28;45287;-72
2023/06/01 03:49:46;;;;;;;2.08;1.70;;;23.20;36.90;;;;;;5072786;28;48644;-71
2023/06/01 03:52:16;;;;;;;2.75;2.10;;;23.20;37.00;;;;;;5072031;28;45383;-71
2023/06/01 03:54:42;;;;;;;1.90;1.77;;;23.10;36.90;;;;;;5071750;28;45335;-71
2023/06/01 03:57:09;;;;;;;3.08;2.10;;;23.10;37.00;;;;;;5072046;28;45348;-71
2023/06/01 03:59:36;;;;;;;2.40;2.10;;;23.10;37.10;;;;;;5071738;28;45498;-71
2023/06/01 04:02:04;;;;;;;1.88;1.77;;;23.10;37.00;;;;;;5071259;28;45261;-71
2023/06/01 04:04:33;;;;;;;1.70;1.60;;;23.10;37.10;;;;;;5071701;28;45225;-71
2023/06/01 04:07:01;;;;;;;1.80;1.70;;;23.00;37.00;;;;;;5071714;28;45443;-71
2023/06/01 04:09:27;;;;;;;1.90;1.80;;;23.00;37.00;;;;;;5071583;28;45310;-71
2023/06/01 04:11:56;;;;;;;2.47;1.90;;;23.00;37.00;;;;;;5071389;28;45257;-71
2023/06/01 04:14:22;;;;;;;1.98;1.80;;;23.00;37.10;;;;;;5071605;28;45292;-71
2023/06/01 04:16:49;;;;;;;2.28;1.70;;;23.00;37.10;;;;;;5071666;28;45375;-71
2023/06/01 04:19:16;;;;;;;1.85;1.75;;;23.00;37.20;;;;;;5071314;28;46380;-71
2023/06/01 04:21:44;;;;;;;3.20;1.85;;;23.00;37.20;;;;;;5071430;28;45347;-71
2023/06/01 04:24:11;;;;;;;1.80;1.70;;;23.00;37.20;;;;;;5071412;28;45312;-71
2023/06/01 04:26:38;;;;;;;3.08;1.83;;;23.00;37.20;;;;;;5071755;28;45449;-71
2023/06/01 04:29:05;;;;;;;2.97;1.95;;;23.00;37.20;;;;;;5071146;28;46391;-71
2023/06/01 04:31:32;;;;;;;2.30;1.80;;;22.90;37.20;;;;;;5071137;28;45356;-71
2023/06/01 04:34:01;;;;;;;1.88;1.77;;;22.90;37.20;;;;;;5071269;28;45364;-71
2023/06/01 04:36:28;;;;;;;2.33;1.75;;;22.90;37.20;;;;;;5068157;28;45311;-71
2023/06/01 04:38:57;;;;;;;1.90;1.70;;;22.90;37.30;;;;;;5067819;28;46608;-71
2023/06/01 04:41:24;;;;;;;1.70;1.60;;;22.90;37.30;;;;;;5067741;28;45325;-71
2023/06/01 04:43:52;;;;;;;2.72;1.92;;;22.90;37.30;;;;;;5067862;28;45303;-71
2023/06/01 04:46:20;;;;;;;2.17;1.98;;;22.90;37.30;;;;;;5067885;28;45413;-71
2023/06/01 04:48:47;;;;;;;2.50;1.60;;;22.90;37.30;;;;;;5067548;28;46382;-71
2023/06/01 04:51:19;;;;;;;2.22;1.70;;;22.90;37.30;;;;;;5067603;28;45288;-71
2023/06/01 04:53:49;;;;;;;2.75;1.88;;;22.90;37.40;;;;;;5067855;28;45442;-71
2023/06/01 04:56:18;;;;;;;1.98;1.80;;;22.90;37.40;;;;;;5068238;27;45328;-71
2023/06/01 04:58:47;;;;;;;1.95;1.50;;;22.90;37.40;;;;;;5068680;28;45803;-72
2023/06/01 05:01:15;;;;;;;3.75;2.05;;;22.90;37.40;;;;;;5068413;28;45249;-71
2023/06/01 05:03:43;;;;;;;2.45;2.00;;;22.80;38.00;;;;;;5067590;28;45299;-70
2023/06/01 05:06:11;;;;;;;3.92;1.85;;;22.80;37.40;;;;;;5067496;28;45363;-70
2023/06/01 05:08:38;;;;;;;1.98;1.65;;;22.80;37.40;;;;;;5067139;28;45430;-71
2023/06/01 05:11:06;;;;;;;1.90;1.70;;;22.80;37.50;;;;;;5067458;28;45333;-71
2023/06/01 05:13:35;;;;;;;1.52;1.42;;;22.80;37.50;;;;;;5067296;28;45298;-70
2023/06/01 05:16:01;;;;;;;1.95;1.80;;;22.80;37.50;;;;;;5067358;28;45489;-70
2023/06/01 05:18:28;;;;;;;1.58;1.48;;;22.80;37.50;;;;;;5067016;28;45313;-70
2023/06/01 05:20:55;;;;;;;2.58;1.55;;;22.80;37.50;;;;;;5067116;28;45257;-70
2023/06/01 05:23:22;;;;;;;1.70;1.60;;;22.80;37.50;;;;;;5067177;28;45190;-72
2023/06/01 05:25:49;;;;;;;2.80;1.75;;;22.80;37.50;;;;;;5067199;28;45329;-70
2023/06/01 05:28:16;;;;;;;1.60;1.50;;;22.80;37.50;;;;;;5066892;28;46556;-70
2023/06/01 05:30:44;;;;;;;1.77;1.60;;;22.80;37.50;;;;;;5066803;28;45402;-70
2023/06/01 05:33:11;;;;;;;1.75;1.65;;;22.80;37.50;;;;;;5067087;28;45395;-70
2023/06/01 05:35:38;;;;;;;3.35;1.73;;;22.80;38.20;;;;;;5067090;28;45476;-70
2023/06/01 05:38:05;;;;;;;1.85;1.35;;;22.70;37.50;;;;;;5066788;28;45380;-70
2023/06/01 05:40:31;;;;;;;2.65;1.50;;;22.70;37.50;;;;;;5066673;28;45255;-70
2023/06/01 05:42:58;;;;;;;1.88;1.65;;;22.80;37.50;;;;;;5067019;28;45446;-70
2023/06/01 05:45:25;;;;;;;2.67;1.83;;;22.80;37.60;;;;;;5066966;28;45253;-70
2023/06/01 05:47:53;;;;;;;1.73;1.63;;;22.80;37.60;;;;;;5063680;28;45247;-72
2023/06/01 05:50:20;;;;;;;1.98;1.83;;;22.80;37.60;;;;;;5066607;28;45503;-71
2023/06/01 05:52:47;;;;;;;1.98;1.67;;;22.80;37.60;;;;;;5066581;28;45382;-72
2023/06/01 05:55:14;;;;;;;1.50;1.40;;;22.80;37.60;;;;;;5066731;28;45253;-71
2023/06/01 05:57:41;;;;;;;1.83;1.73;;;22.80;37.60;;;;;;5066294;28;46331;-71
2023/06/01 06:00:10;;;;;;;1.73;1.58;;;22.80;37.60;;;;;;5066369;28;45343;-71
2023/06/01 06:02:37;;;;;;;2.80;1.70;;;22.80;37.60;;;;;;5066215;28;45367;-72
2023/06/01 06:05:06;;;;;;;1.92;1.77;;;22.80;37.70;;;;;;5066688;28;45346;-72
2023/06/01 06:07:33;;;;;;;1.58;1.48;;;22.80;37.70;;;;;;5066186;28;45319;-71
2023/06/01 06:10:00;;;;;;;1.98;1.73;;;22.80;37.70;;;;;;5066123;28;45325;-71
2023/06/01 06:12:28;;;;;;;1.52;1.42;;;22.80;37.60;;;;;;5066326;28;45190;-71
2023/06/01 06:14:55;;;;;;;1.75;1.65;;;22.80;37.70;;;;;;5066574;28;45475;-71
2023/06/01 06:17:21;;;;;;;1.88;1.70;;;22.80;37.70;;;;;;5063392;28;46154;-71
2023/06/01 06:19:49;;;;;;;1.98;1.75;;;22.90;37.70;;;;;;5066055;28;45257;-71
2023/06/01 06:22:17;;;;;;;1.70;1.58;;;22.90;37.70;;;;;;5066196;28;45442;-71
2023/06/01 06:24:44;;;;;;;2.38;1.90;;;22.90;37.70;;;;;;5066165;28;45311;-72
2023/06/01 06:27:11;;;;;;;1.70;1.60;;;22.80;37.70;;;;;;5065773;28;46374;-71
2023/06/01 06:29:37;;;;;;;2.15;1.95;;;22.80;37.60;;;;;;5065904;28;45242;-71
2023/06/01 06:32:05;;;;;;;1.80;1.70;;;22.90;37.80;;;;;;5065967;28;45430;-71
2023/06/01 06:34:35;;;;;;;1.30;1.20;;;22.90;37.70;;;;;;5066324;28;45443;-71
2023/06/01 06:37:03;;;;;;;2.03;1.73;;;22.90;37.70;;;;;;5065541;28;45795;-71
2023/06/01 06:39:31;;;;;;;2.15;1.80;;;22.90;37.70;;;;;;5065856;28;45378;-71
2023/06/01 06:41:58;;;;;;;2.65;1.50;;;22.90;37.80;;;;;;5065868;28;45369;-71
2023/06/01 06:44:26;;;;;;;2.38;1.60;;;22.90;37.70;;;;;;5066159;28;45304;-71
2023/06/01 06:46:52;;;;;;;1.90;1.70;;;22.90;37.80;;;;;;5065526;28;46363;-71
2023/06/01 06:49:19;;;;;;;1.60;1.50;;;22.90;37.80;;;;;;5065839;28;45451;-71
2023/06/01 06:51:46;;;;;;;1.95;1.70;;;23.00;37.80;;;;;;5065831;28;45316;-71
2023/06/01 06:54:13;;;;;;;2.20;1.73;;;23.00;37.80;;;;;;5065883;28;45422;-72
2023/06/01 06:56:41;;;;;;;3.05;1.90;;;23.00;37.80;;;;;;5065402;28;46687;-71
2023/06/01 06:59:08;;;;;;;1.77;1.50;;;23.00;37.80;;;;;;5064856;28;45318;-71
2023/06/01 07:01:37;;;;;;;2.00;1.70;;;23.00;37.80;;;;;;5065903;28;45381;-71
2023/06/01 07:04:04;;;;;;;2.05;1.55;;;23.00;37.80;;;;;;5065920;28;45477;-71
2023/06/01 07:06:32;;;;;;;1.67;1.58;;;23.00;37.80;;;;;;5065452;28;45293;-71
2023/06/01 07:08:59;;;;;;;1.65;1.52;;;23.00;37.80;;;;;;5065627;28;45563;-71
2023/06/01 07:11:26;;;;;;;1.77;1.50;;;23.10;37.90;;;;;;5065793;28;45327;-71
2023/06/01 07:13:57;;;;;;;1.50;1.40;;;23.00;37.80;;;;;;5065622;28;45568;-71
2023/06/01 07:16:24;;;;;;;1.95;1.70;;;23.10;37.80;;;;;;5065072;28;45516;-71
2023/06/01 07:18:50;;;;;;;1.85;1.50;;;23.10;37.80;;;;;;5065169;28;45291;-71
2023/06/01 07:21:17;;;;;;;1.98;1.65;;;23.10;37.80;;;;;;5065335;28;45362;-71
2023/06/01 07:23:45;;;;;;;1.55;1.45;;;23.10;37.80;;;;;;5065523;28;45420;-71
2023/06/01 07:26:12;;;;;;;2.85;1.77;;;23.20;37.90;;;;;;5065205;28;45574;-71
2023/06/01 07:28:38;;;;;;;1.52;1.42;;;23.20;37.90;;;;;;5065215;28;45315;-71
2023/06/01 07:31:07;;;;;;;2.35;1.45;;;23.20;37.90;;;;;;5065524;28;45273;-71
2023/06/01 07:33:35;;;;;;;1.75;1.50;;;23.20;37.90;;;;;;5065328;28;45385;-72
2023/06/01 07:36:03;;;;;;;2.05;1.70;;;23.20;37.90;;;;;;5064844;28;46596;-72
2023/06/01 07:38:31;;;;;;;2.45;1.60;;;23.20;37.80;;;;;;5065289;28;45371;-72
2023/06/01 07:40:57;;;;;;;2.72;1.60;;;23.30;37.90;;;;;;5065404;28;45289;-71
2023/06/01 07:43:24;;;;;;;1.60;1.40;;;23.30;37.90;;;;;;5065378;28;45320;-71
2023/06/01 07:45:51;;;;;;;1.88;1.60;;;23.30;37.90;;;;;;5064915;28;45583;-72
2023/06/01 07:48:19;;;;;;;1.77;1.48;;;23.30;37.90;;;;;;5065148;28;45415;-72
2023/06/01 07:50:46;;;;;;;1.80;1.70;;;23.30;37.90;;;;;;5065059;28;45329;-72
2023/06/01 07:53:13;;;;;;;1.70;1.60;;;23.30;37.80;;;;;;5065360;28;45511;-72
2023/06/01 07:55:40;;;;;;;1.98;1.55;;;23.40;37.80;;;;;;5064916;28;45452;-72
2023/06/01 07:58:06;;;;;;;1.45;1.35;;;23.40;37.70;;;;;;5064842;28;45319;-72
2023/06/01 08:00:34;;;;;;;2.08;1.80;;;23.40;37.70;;;;;;5064869;28;45252;-72
2023/06/01 08:03:06;;;;;;;1.98;1.45;;;23.50;37.90;;;;;;5065122;28;45371;-72
2023/06/01 08:05:35;;;;;;;1.60;1.50;;;23.50;37.80;;;;;;5064637;28;45388;-71
2023/06/01 08:08:02;;;;;;;2.25;1.63;;;23.50;37.80;;;;;;5064695;28;45337;-72
2023/06/01 08:10:29;;;;;;;1.63;1.52;;;23.50;37.70;;;;;;5066120;28;45304;-72
2023/06/01 08:12:57;;;;;;;2.50;1.67;;;23.50;37.80;;;;;;5068728;28;45299;-72
2023/06/01 08:15:25;;;;;;;1.55;1.45;;;23.60;37.70;;;;;;5068122;28;46357;-72
2023/06/01 08:17:52;;;;;;;2.17;1.58;;;23.60;37.70;;;;;;5068140;28;45391;-71
2023/06/01 08:20:21;;;;;;;1.70;1.60;;;23.60;37.70;;;;;;5068357;28;45395;-73
2023/06/01 08:22:49;;;;;;;1.75;1.65;;;23.60;37.50;;;;;;5068457;28;45314;-72
2023/06/01 08:25:16;;;;;;;1.77;1.50;;;23.70;37.60;;;;;;5067853;28;45368;-72
2023/06/01 08:27:43;;;;;;;1.50;1.40;;;23.70;37.40;;;;;;5067861;28;45407;-72
2023/06/01 08:30:10;;;;;;;1.90;1.70;;;23.70;37.50;;;;;;5067994;28;45265;-71
2023/06/01 08:32:37;;;;;;;1.80;1.65;;;23.70;37.60;;;;;;5068235;28;45302;-71
2023/06/01 08:35:06;;;;;;;2.00;1.85;;;23.80;37.70;;;;;;5067696;28;45667;-71
2023/06/01 08:37:33;;;;;;;1.60;1.50;;;23.80;37.70;;;;;;5067632;28;45410;-71
2023/06/01 08:40:01;;;;;;;1.50;1.40;;;23.80;37.80;;;;;;5067997;28;45443;-71
2023/06/01 08:42:31;;;;;;;1.95;1.75;;;23.90;37.80;;;;;;5068006;28;45640;-71
2023/06/01 08:44:58;;;;;;;1.73;1.60;;;23.90;37.80;;;;;;5067731;27;45282;-72
2023/06/01 08:47:26;;;;;;;2.15;1.55;;;23.90;37.80;;;;;;5067622;28;45319;-71
2023/06/01 08:49:52;;;;;;;1.80;1.70;;;23.90;37.80;;;;;;5067935;28;45354;-71
2023/06/01 08:52:21;;;;;;;1.70;1.60;;;24.00;37.90;;;;;;5068163;28;45301;-72
2023/06/01 08:54:47;;;;;;;1.73;1.60;;;24.00;37.90;;;;;;5067495;28;47074;-71
2023/06/01 08:57:16;;;;;;;1.88;1.77;;;24.00;37.90;;;;;;5067420;28;45409;-71
2023/06/01 08:59:43;;;;;;;1.63;1.52;;;24.00;37.90;;;;;;5067809;28;45258;-71
2023/06/01 09:02:10;;;;;;;1.65;1.55;;;24.10;37.90;;;;;;5067381;28;45380;-71
2023/06/01 09:04:41;;;;;;;2.05;1.85;;;24.10;37.90;;;;;;5067639;28;45441;-71
2023/06/01 09:07:08;;;;;;;1.50;1.40;;;24.10;37.90;;;;;;5067148;28;45315;-71
2023/06/01 09:09:35;;;;;;;1.95;1.75;;;24.20;38.00;;;;;;5067575;28;45384;-71
2023/06/01 09:12:20;;;;;;;2.95;1.83;;;24.20;38.00;;;;;;5067600;28;45351;-71
2023/06/01 09:14:47;;;;;;;1.80;1.63;;;24.20;38.10;;;;;;5067265;28;46500;-71
2023/06/01 09:17:14;;;;;;;1.80;1.70;;;24.20;38.10;;;;;;5067133;28;45352;-72
2023/06/01 09:19:44;;;;;;;2.47;1.63;;;24.30;38.20;;;;;;5067322;28;45314;-71
2023/06/01 09:22:11;;;;;;;2.88;1.58;;;24.30;38.30;;;;;;5066798;28;45321;-71
2023/06/01 09:24:38;;;;;;;2.10;1.90;;;24.30;38.30;;;;;;5067036;28;46370;-70
2023/06/01 09:27:06;;;;;;;2.00;1.80;;;24.40;38.30;;;;;;5066960;28;45291;-71
2023/06/01 09:29:34;;;;;;;1.60;1.50;;;24.40;38.40;;;;;;5067255;28;45324;-71
2023/06/01 09:32:01;;;;;;;2.40;1.63;;;24.40;38.20;;;;;;5067287;28;45413;-71
2023/06/01 09:34:28;;;;;;;1.95;1.70;;;24.50;38.30;;;;;;5066710;28;46740;-71
2023/06/01 09:36:55;;;;;;;2.40;1.50;;;24.50;38.20;;;;;;5066884;28;45229;-71
2023/06/01 09:39:23;;;;;;;2.25;2.00;;;24.50;38.90;;;;;;5067135;28;45271;-71
2023/06/01 09:41:51;;;;;;;2.00;1.80;;;24.50;38.90;;;;;;5067332;28;45343;-71
2023/06/01 09:44:26;;;;;;;2.17;1.90;;;24.60;38.40;;;;;;5066743;28;45382;-71
2023/06/01 09:46:54;;;;;;;2.88;1.58;;;24.60;38.30;;;;;;5066411;28;45341;-70
2023/06/01 09:49:24;;;;;;;2.53;1.77;;;24.60;38.30;;;;;;5066926;28;45407;-71
2023/06/01 09:51:51;;;;;;;2.28;1.75;;;24.70;38.30;;;;;;5067105;28;45393;-71
2023/06/01 09:54:25;;;;;;;1.70;1.60;;;24.70;38.30;;;;;;5066585;28;45734;-69
2023/06/01 09:56:53;;;;;;;1.85;1.73;;;24.70;38.90;;;;;;5066646;28;45374;-69
2023/06/01 09:59:21;;;;;;;2.30;1.70;;;24.80;38.30;;;;;;5066771;28;45360;-69
2023/06/01 10:01:52;;;;;;;2.92;1.60;;;24.80;38.30;;;;;;5066746;28;45553;-70
2023/06/01 10:04:23;;;;;;;2.38;1.90;;;24.80;38.20;;;;;;5066402;28;46372;-69
2023/06/01 10:06:51;;;;;;;1.92;1.70;;;24.90;38.80;;;;;;5066344;28;45324;-71
2023/06/01 10:09:19;;;;;;;3.08;1.85;;;24.90;38.20;;;;;;5066537;28;45427;-71
2023/06/01 10:11:46;;;;;;;2.25;1.60;;;25.00;38.20;;;;;;5067001;28;45300;-71
2023/06/01 10:14:13;;;;;;;3.50;1.70;;;25.00;38.20;;;;;;5066348;28;46381;-71
2023/06/01 10:16:40;;;;;;;3.45;1.75;;;25.00;38.20;;;;;;5066037;28;45421;-71
2023/06/01 10:19:08;;;;;;;1.92;1.70;;;25.10;38.30;;;;;;5066355;28;45317;-71
2023/06/01 10:21:36;;;;;;;3.72;1.90;;;25.10;38.30;;;;;;5066448;28;45308;-71
2023/06/01 10:24:03;;;;;;;2.10;1.70;;;25.20;38.20;;;;;;5066111;28;45629;-70
2023/06/01 10:26:30;;;;;;;1.98;1.77;;;25.20;38.20;;;;;;5066106;28;45318;-70
2023/06/01 10:28:57;;;;;;;2.40;1.80;;;25.20;38.20;;;;;;5066337;28;45470;-71
2023/06/01 10:31:36;;;;;;;2.10;1.90;;;25.30;38.30;;;;;;5066385;28;45238;-71
2023/06/01 10:34:03;;;;;;;3.25;1.75;;;25.30;38.20;;;;;;5064584;28;46385;-71
2023/06/01 10:37:04;;;;;;;1.67;1.58;;;25.30;38.30;;;;;;5065804;28;45324;-71
2023/06/01 10:39:32;;;;;;;2.50;1.50;;;25.40;38.20;;;;;;5060571;28;45513;-70
2023/06/01 10:42:01;;;;;;;2.00;1.80;;;25.40;38.10;;;;;;5063623;28;45349;-70
2023/06/01 10:44:46;;;;;;;2.00;1.80;;;25.40;38.10;;;;;;5065868;28;46766;-71
2023/06/01 10:47:48;;;;;;;2.05;1.83;;;25.50;38.20;;;;;;5045398;28;45428;-71
2023/06/01 10:50:18;;;;;;;2.53;1.92;;;25.50;38.10;;;;;;5045883;28;45304;-70
2023/06/01 10:52:45;;;;;;;2.42;1.90;;;25.60;38.20;;;;;;5045948;28;45379;-70
2023/06/01 10:55:28;;;;;;;1.98;1.88;;;25.60;38.20;;;;;;5045309;28;46380;-72
2023/06/01 10:58:20;;;;;;;3.60;1.80;;;25.70;38.20;;;;;;5045737;28;45329;-70
2023/06/01 11:00:47;;;;;;;1.80;1.48;;;25.70;38.10;;;;;;5045785;28;45317;-71
2023/06/01 11:03:13;;;;;;;1.77;1.67;;;25.80;38.20;;;;;;5045496;28;45376;-71
2023/06/01 11:05:43;;;;;;;2.30;1.70;;;25.80;38.10;;;;;;5045298;28;45300;-71
2023/06/01 11:08:28;;;;;;;2.00;1.73;;;25.90;38.10;;;;;;5045360;28;45320;-71
2023/06/01 11:10:58;;;;;;;2.35;1.70;;;26.00;38.10;;;;;;5045388;28;45317;-71
2023/06/01 11:13:27;;;;;;;1.85;1.73;;;26.00;38.00;;;;;;5045733;28;45370;-71
2023/06/01 11:16:31;;;;;;;3.13;1.70;;;26.00;37.90;;;;;;5045020;28;45307;-71
2023/06/01 11:18:58;;;;;;;2.13;1.67;;;26.10;38.00;;;;;;4983422;28;45477;-69
2023/06/01 11:21:26;;;;;;;2.50;1.98;;;26.20;37.90;;;;;;5033728;28;45404;-71
2023/06/01 11:23:53;;;;;;;1.85;1.60;;;26.20;37.80;;;;;;5054905;28;45293;-71
2023/06/01 11:26:24;;;;;;;1.90;1.60;;;26.30;37.80;;;;;;5065269;28;46544;-71
2023/06/01 11:28:51;;;;;;;2.25;1.98;;;26.30;37.80;;;;;;5065380;28;45384;-69
2023/06/01 11:31:19;;;;;;;2.75;1.92;;;26.40;37.80;;;;;;5065432;28;45285;-71
2023/06/01 11:33:52;;;;;;;1.98;1.80;;;26.50;37.70;;;;;;5065499;28;45550;-71
2023/06/01 11:36:20;;;;;;;3.55;1.90;;;26.50;37.70;;;;;;5064871;28;45475;-70
2023/06/01 11:38:47;;;;;;;2.47;1.90;;;26.60;37.60;;;;;;5065170;28;45265;-70
2023/06/01 11:41:14;;;;;;;3.83;2.08;;;26.60;37.60;;;;;;5065422;28;45319;-71
2023/06/01 11:43:42;;;;;;;2.42;1.80;;;26.70;37.60;;;;;;5065387;28;45390;-71
2023/06/01 11:46:10;;;;;;;2.22;1.83;;;26.70;37.50;;;;;;5066903;28;45355;-71
2023/06/01 11:48:37;;;;;;;2.22;1.95;;;26.80;37.50;;;;;;5068636;28;45323;-71
2023/06/01 11:51:04;;;;;;;3.08;1.90;;;26.80;37.40;;;;;;5068730;28;45336;-71
2023/06/01 11:53:31;;;;;;;2.47;2.05;;;26.90;37.40;;;;;;5068898;28;45372;-71
2023/06/01 11:55:58;;;;;;;1.90;1.80;;;27.00;37.40;;;;;;5068212;28;46733;-71
2023/06/01 11:58:25;;;;;;;2.83;2.25;;;27.00;37.40;;;;;;5066085;28;45385;-72
2023/06/01 12:00:54;;;;;;;2.13;1.88;;;27.10;37.30;;;;;;5068704;28;45169;-71
2023/06/01 12:03:21;;;;;;;2.30;2.10;;;27.10;37.30;;;;;;5068450;28;45301;-71
2023/06/01 12:05:48;;;;;;;2.75;2.10;;;27.20;37.30;;;;;;5068189;28;46396;-70
2023/06/01 12:08:15;;;;;;;2.13;1.92;;;27.20;37.10;;;;;;5068184;28;45385;-71
2023/06/01 12:10:43;;;;;;;2.28;1.85;;;27.30;37.00;;;;;;5068566;28;45340;-71
2023/06/01 12:13:10;;;;;;;2.15;1.90;;;27.40;37.10;;;;;;5068536;28;45527;-71
2023/06/01 12:15:37;;;;;;;2.45;2.03;;;27.40;37.10;;;;;;5067914;28;45367;-71
2023/06/01 12:18:06;;;;;;;2.35;2.15;;;27.50;37.10;;;;;;5068130;28;45427;-71
2023/06/01 12:20:35;;;;;;;3.03;2.03;;;27.50;37.00;;;;;;5068343;28;45204;-71
2023/06/01 12:23:03;;;;;;;1.92;1.77;;;27.60;37.00;;;;;;5068487;28;45351;-71
2023/06/01 12:25:30;;;;;;;3.78;1.80;;;27.60;36.90;;;;;;5068203;28;46878;-70
2023/06/01 12:28:04;;;;;;;2.30;2.10;;;27.70;36.90;;;;;;5068118;28;45326;-71
2023/06/01 12:30:31;;;;;;;2.25;2.05;;;27.70;36.90;;;;;;5068151;28;45287;-70
2023/06/01 12:32:58;;;;;;;3.15;2.30;;;27.80;36.80;;;;;;5068447;28;45489;-71
2023/06/01 12:35:26;;;;;;;2.22;2.03;;;27.80;36.80;;;;;;5067878;28;46607;-71
2023/06/01 12:38:06;;;;;;;2.53;2.17;;;27.90;36.70;;;;;;5067858;28;45315;-71
2023/06/01 12:40:33;;;;;;;2.40;1.92;;;28.00;36.70;;;;;;5068125;28;45366;-69
2023/06/01 12:43:00;;;;;;;2.42;2.03;;;28.00;36.60;;;;;;5068181;28;45302;-71
2023/06/01 12:45:36;;;;;;;2.40;2.20;;;28.10;36.60;;;;;;5067512;28;46416;-72
2023/06/01 12:48:03;;;;;;;2.20;2.00;;;28.10;36.60;;;;;;5067704;28;45324;-71
2023/06/01 12:50:31;;;;;;;2.30;2.10;;;28.20;36.50;;;;;;5067946;28;45340;-70
2023/06/01 12:52:58;;;;;;;2.22;2.03;;;28.20;36.50;;;;;;5067840;28;45249;-71
2023/06/01 12:55:25;;;;;;;2.70;2.00;;;28.30;36.40;;;;;;5067400;28;46732;-71